Terminal Aerodrome Forecast
Issued by NWS

Home | Current Version | Previous Version | Text Only | Print | Product List | Glossary On
Versions: 1 2 3 4 5 6 7 8 9 10 11 12 13 14 15
000
FTUS46 KPDT 131720
TAFBDN
TAF
KBDN 131720Z 1318/1418 30005KT 5SM BR OVC004
     FM131900 21004KT P6SM FEW004 SCT250
     FM132100 21004KT P6SM SCT250
     FM140400 21003KT 3SM BR SCT003 BKN200=

USA.gov is the U.S. government's official web portal to all federal, state and local government web resources and services.